Time;durP1;ratioP1;P1;durP2;ratioP2;P2;SDS_P1;SDS_P2;PMS_P1;PMS_P2;Temp;Humidity;BMP_temperature;BMP_pressure;BME280_temperature;BME280_humidity;BME280_pressure;Samples;Min_cycle;Max_cycle;Signal;HPM_P1;HPM_P2
2022/10/16 00:01:48;;;;;;;11.77;8.87;;;;;;;;;;5074556;28;20481;-66
2022/10/16 00:04:15;;;;;;;10.20;7.60;;;;;;;;;;5073750;28;20531;-66
2022/10/16 00:06:42;;;;;;;10.33;8.30;;;;;;;;;;5074094;28;20529;-67
2022/10/16 00:09:11;;;;;;;12.87;8.97;;;;;;;;;;5074037;28;20441;-66
2022/10/16 00:11:39;;;;;;;17.50;8.97;;;;;;;;;;5073929;28;20546;-66
2022/10/16 00:14:07;;;;;;;21.03;9.77;;;;;;;;;;5073031;28;20454;-67
2022/10/16 00:16:35;;;;;;;11.37;9.83;;;;;;;;;;5073678;28;20801;-67
2022/10/16 00:19:02;;;;;;;10.30;8.37;;;;;;;;;;5073554;28;20448;-67
2022/10/16 00:21:30;;;;;;;13.00;9.17;;;;;;;;;;5073526;28;20474;-67
2022/10/16 00:23:59;;;;;;;12.47;8.80;;;;;;;;;;5073124;28;20571;-67
2022/10/16 00:26:28;;;;;;;11.07;8.20;;;;;;;;;;5073758;28;20454;-67
2022/10/16 00:28:55;;;;;;;10.53;9.23;;;;;;;;;;5073908;28;20451;-67
2022/10/16 00:31:23;;;;;;;9.90;8.33;;;;;;;;;;5073409;28;20451;-68
2022/10/16 00:33:51;;;;;;;14.30;8.60;;;;;;;;;;5073442;28;20448;-66
2022/10/16 00:36:19;;;;;;;11.87;8.57;;;;;;;;;;5073887;28;20447;-67
2022/10/16 00:38:46;;;;;;;9.60;8.50;;;;;;;;;;5073355;28;20459;-67
2022/10/16 00:41:15;;;;;;;14.80;8.77;;;;;;;;;;5073836;28;20831;-67
2022/10/16 00:43:44;;;;;;;13.63;9.10;;;;;;;;;;5073082;28;20449;-68
2022/10/16 00:46:15;;;;;;;11.80;8.40;;;;;;;;;;5073464;28;20449;-66
2022/10/16 00:48:42;;;;;;;9.40;8.40;;;;;;;;;;5073179;28;20462;-67
2022/10/16 00:51:09;;;;;;;11.23;8.27;;;;;;;;;;5073075;28;20449;-66
2022/10/16 00:53:37;;;;;;;15.10;9.17;;;;;;;;;;5072926;28;21031;-67
2022/10/16 00:56:04;;;;;;;9.63;8.63;;;;;;;;;;5073394;28;20953;-66
2022/10/16 00:58:31;;;;;;;11.80;10.10;;;;;;;;;;5072938;28;20954;-66
2022/10/16 01:01:00;;;;;;;13.70;9.40;;;;;;;;;;5073334;28;20460;-66
2022/10/16 01:03:29;;;;;;;15.00;10.37;;;;;;;;;;5072897;28;20442;-66
2022/10/16 01:06:01;;;;;;;12.83;10.80;;;;;;;;;;5073147;28;20465;-67
2022/10/16 01:08:32;;;;;;;19.60;11.27;;;;;;;;;;5073068;28;20916;-66
2022/10/16 01:11:04;;;;;;;12.87;10.10;;;;;;;;;;5073167;28;20435;-66
2022/10/16 01:13:35;;;;;;;14.43;9.60;;;;;;;;;;5073324;28;20434;-66
2022/10/16 01:16:06;;;;;;;12.33;9.70;;;;;;;;;;5073105;28;20475;-67
2022/10/16 01:18:35;;;;;;;15.80;10.90;;;;;;;;;;5073135;28;20430;-66
2022/10/16 01:21:04;;;;;;;13.90;11.13;;;;;;;;;;5072894;28;20447;-66
2022/10/16 01:23:38;;;;;;;12.30;10.13;;;;;;;;;;5072784;28;20447;-66
2022/10/16 01:26:22;;;;;;;10.23;8.37;;;;;;;;;;5074560;28;21014;-66
2022/10/16 01:28:53;;;;;;;10.70;8.63;;;;;;;;;;5077354;28;20438;-66
2022/10/16 01:31:21;;;;;;;15.00;10.20;;;;;;;;;;5076757;28;20439;-66
2022/10/16 01:33:52;;;;;;;10.17;8.40;;;;;;;;;;5076719;28;20446;-66
2022/10/16 01:36:22;;;;;;;10.07;8.30;;;;;;;;;;5076562;28;20457;-67
2022/10/16 01:38:52;;;;;;;9.23;7.70;;;;;;;;;;5077317;28;20431;-66
2022/10/16 01:41:21;;;;;;;13.60;7.43;;;;;;;;;;5076359;28;20442;-66
2022/10/16 01:43:51;;;;;;;11.03;8.67;;;;;;;;;;5076520;28;20437;-66
2022/10/16 01:46:20;;;;;;;12.70;9.10;;;;;;;;;;5075932;28;20947;-67
2022/10/16 01:48:48;;;;;;;11.37;7.53;;;;;;;;;;5076358;28;20446;-67
2022/10/16 01:51:17;;;;;;;9.80;7.83;;;;;;;;;;5075902;28;20448;-67
2022/10/16 01:53:47;;;;;;;13.07;9.63;;;;;;;;;;5076074;28;20444;-66
2022/10/16 01:56:15;;;;;;;10.00;9.10;;;;;;;;;;5076159;28;20452;-67
2022/10/16 01:58:43;;;;;;;10.40;7.70;;;;;;;;;;5076275;28;20444;-66
2022/10/16 02:01:12;;;;;;;9.20;7.50;;;;;;;;;;5075637;28;20438;-67
2022/10/16 02:03:42;;;;;;;11.63;7.70;;;;;;;;;;5076102;28;20475;-66
2022/10/16 02:06:10;;;;;;;14.97;9.23;;;;;;;;;;5076519;28;20458;-67
2022/10/16 02:08:38;;;;;;;12.37;8.67;;;;;;;;;;5076270;28;20445;-67
2022/10/16 02:11:05;;;;;;;11.43;8.00;;;;;;;;;;5075523;28;20454;-67
2022/10/16 02:13:35;;;;;;;12.30;8.03;;;;;;;;;;5075936;28;20454;-66
2022/10/16 02:16:02;;;;;;;8.83;7.50;;;;;;;;;;5075482;28;20441;-67
2022/10/16 02:18:30;;;;;;;10.33;7.60;;;;;;;;;;5076141;28;20446;-66
2022/10/16 02:21:00;;;;;;;9.00;7.20;;;;;;;;;;5075677;28;20512;-66
2022/10/16 02:23:31;;;;;;;9.17;7.33;;;;;;;;;;5075202;28;20477;-66
2022/10/16 02:26:00;;;;;;;9.90;7.47;;;;;;;;;;5075867;28;20462;-66
2022/10/16 02:28:30;;;;;;;17.73;8.23;;;;;;;;;;5074388;28;20481;-66
2022/10/16 02:30:59;;;;;;;10.40;7.83;;;;;;;;;;5075486;28;20435;-66
2022/10/16 02:33:27;;;;;;;12.13;7.70;;;;;;;;;;5075709;28;20454;-66
2022/10/16 02:35:55;;;;;;;12.07;7.50;;;;;;;;;;5075398;28;20785;-67
2022/10/16 02:38:24;;;;;;;12.80;8.63;;;;;;;;;;5075314;28;20927;-66
2022/10/16 02:40:51;;;;;;;14.50;10.30;;;;;;;;;;5074972;28;20446;-66
2022/10/16 02:43:18;;;;;;;11.10;8.27;;;;;;;;;;5075281;28;20480;-65
2022/10/16 02:45:46;;;;;;;11.20;8.10;;;;;;;;;;5075180;28;20441;-66
2022/10/16 02:48:13;;;;;;;10.60;7.47;;;;;;;;;;5074941;28;20445;-66
2022/10/16 02:50:40;;;;;;;10.93;8.80;;;;;;;;;;5074808;28;20456;-66
2022/10/16 02:53:07;;;;;;;11.43;7.50;;;;;;;;;;5074747;28;20460;-66
2022/10/16 02:55:36;;;;;;;9.93;8.00;;;;;;;;;;5075012;28;20442;-66
2022/10/16 02:58:03;;;;;;;14.10;7.90;;;;;;;;;;5074972;28;20440;-67
2022/10/16 03:00:30;;;;;;;9.30;7.30;;;;;;;;;;5075010;28;20448;-67
2022/10/16 03:02:57;;;;;;;9.07;7.47;;;;;;;;;;5074844;28;20493;-66
2022/10/16 03:05:24;;;;;;;11.80;8.60;;;;;;;;;;5074701;28;20457;-67
2022/10/16 03:07:52;;;;;;;11.83;7.63;;;;;;;;;;5075006;28;20440;-66
2022/10/16 03:10:19;;;;;;;9.77;7.40;;;;;;;;;;5074384;28;20447;-67
2022/10/16 03:12:48;;;;;;;10.17;7.90;;;;;;;;;;5074803;28;20491;-66
2022/10/16 03:15:15;;;;;;;8.13;7.20;;;;;;;;;;5074692;28;20445;-66
2022/10/16 03:17:43;;;;;;;8.00;7.03;;;;;;;;;;5074565;28;20449;-67
2022/10/16 03:20:10;;;;;;;10.90;8.10;;;;;;;;;;5074323;28;20476;-66
2022/10/16 03:22:37;;;;;;;11.30;7.27;;;;;;;;;;5074360;28;20487;-67
2022/10/16 03:25:05;;;;;;;10.40;7.93;;;;;;;;;;5074485;28;20477;-66
2022/10/16 03:27:32;;;;;;;8.80;6.67;;;;;;;;;;5074337;28;20441;-67
2022/10/16 03:30:00;;;;;;;7.83;7.03;;;;;;;;;;5074412;28;20453;-67
2022/10/16 03:32:28;;;;;;;7.37;6.60;;;;;;;;;;5073994;28;20452;-66
2022/10/16 03:34:56;;;;;;;10.13;6.90;;;;;;;;;;5074424;28;20457;-66
2022/10/16 03:37:24;;;;;;;7.77;7.07;;;;;;;;;;5074159;28;20449;-66
2022/10/16 03:39:51;;;;;;;8.73;7.67;;;;;;;;;;5073926;28;20949;-66
2022/10/16 03:42:18;;;;;;;8.03;7.20;;;;;;;;;;5074314;28;20828;-66
2022/10/16 03:44:45;;;;;;;10.50;7.00;;;;;;;;;;5074182;28;20441;-67
2022/10/16 03:47:14;;;;;;;13.23;7.90;;;;;;;;;;5073893;28;20442;-66
2022/10/16 03:49:41;;;;;;;8.10;7.30;;;;;;;;;;5073082;28;20448;-67
2022/10/16 03:52:08;;;;;;;8.93;6.90;;;;;;;;;;5073570;28;20449;-67
2022/10/16 03:54:35;;;;;;;8.90;7.97;;;;;;;;;;5073962;28;20449;-66
2022/10/16 03:57:02;;;;;;;11.00;7.63;;;;;;;;;;5074140;28;20437;-67
2022/10/16 03:59:30;;;;;;;8.67;7.80;;;;;;;;;;5073870;28;20444;-66
2022/10/16 04:01:57;;;;;;;8.97;8.07;;;;;;;;;;5073329;28;20444;-66
2022/10/16 04:04:25;;;;;;;13.20;8.30;;;;;;;;;;5073471;28;20449;-66
2022/10/16 04:06:53;;;;;;;10.70;8.87;;;;;;;;;;5073850;28;20510;-66
2022/10/16 04:09:20;;;;;;;9.57;7.80;;;;;;;;;;5073647;28;20453;-66
2022/10/16 04:11:47;;;;;;;13.30;8.27;;;;;;;;;;5073707;28;20448;-66
2022/10/16 04:14:14;;;;;;;13.60;7.83;;;;;;;;;;5073421;28;20451;-67
2022/10/16 04:16:41;;;;;;;9.23;8.27;;;;;;;;;;5072705;28;20441;-67
2022/10/16 04:19:09;;;;;;;13.47;8.40;;;;;;;;;;5072345;28;20451;-67
2022/10/16 04:21:37;;;;;;;15.13;8.17;;;;;;;;;;5072152;28;20444;-67
2022/10/16 04:24:04;;;;;;;10.47;7.63;;;;;;;;;;5071891;28;20489;-66
2022/10/16 04:26:32;;;;;;;12.27;8.67;;;;;;;;;;5073108;28;20915;-66
2022/10/16 04:28:59;;;;;;;8.83;7.90;;;;;;;;;;5072679;28;20444;-66
2022/10/16 04:31:26;;;;;;;11.33;8.90;;;;;;;;;;5073154;28;20440;-66
2022/10/16 04:33:53;;;;;;;7.70;7.07;;;;;;;;;;5073073;28;20446;-66
2022/10/16 04:36:20;;;;;;;7.50;6.73;;;;;;;;;;5073204;28;20809;-66
2022/10/16 04:38:49;;;;;;;8.93;7.87;;;;;;;;;;5073391;28;20440;-66
2022/10/16 04:41:16;;;;;;;10.90;7.00;;;;;;;;;;5073136;28;20438;-66
2022/10/16 04:43:43;;;;;;;9.60;7.67;;;;;;;;;;5073338;28;20481;-65
2022/10/16 04:46:11;;;;;;;11.23;8.03;;;;;;;;;;5073754;28;20440;-66
2022/10/16 04:48:38;;;;;;;10.17;7.97;;;;;;;;;;5073003;28;20471;-67
2022/10/16 04:51:05;;;;;;;8.97;7.80;;;;;;;;;;5073060;28;20452;-66
2022/10/16 04:53:33;;;;;;;8.87;7.00;;;;;;;;;;5073227;28;20450;-66
2022/10/16 04:56:01;;;;;;;8.73;7.10;;;;;;;;;;5072811;28;20438;-66
2022/10/16 04:58:28;;;;;;;9.50;6.97;;;;;;;;;;5072718;28;20455;-66
2022/10/16 05:00:56;;;;;;;6.97;6.27;;;;;;;;;;5076245;28;20446;-66
2022/10/16 05:03:23;;;;;;;6.03;5.47;;;;;;;;;;5076727;28;20483;-66
2022/10/16 05:05:50;;;;;;;7.70;5.87;;;;;;;;;;5076980;28;20449;-66
2022/10/16 05:08:18;;;;;;;6.90;6.00;;;;;;;;;;5077084;28;20442;-67
2022/10/16 05:10:45;;;;;;;7.20;6.50;;;;;;;;;;5076354;28;20441;-66
2022/10/16 05:13:14;;;;;;;6.17;5.57;;;;;;;;;;5076708;28;20440;-66
2022/10/16 05:15:41;;;;;;;6.20;5.40;;;;;;;;;;5077010;28;20440;-67
2022/10/16 05:18:08;;;;;;;6.93;5.67;;;;;;;;;;5076550;28;20456;-66
2022/10/16 05:20:35;;;;;;;6.43;5.10;;;;;;;;;;5077025;28;20453;-66
2022/10/16 05:23:03;;;;;;;7.30;5.20;;;;;;;;;;5076719;28;20481;-66
2022/10/16 05:25:30;;;;;;;6.93;5.33;;;;;;;;;;5076972;28;20473;-66
2022/10/16 05:27:57;;;;;;;14.17;5.53;;;;;;;;;;5076717;28;20452;-66
2022/10/16 05:30:26;;;;;;;7.07;5.13;;;;;;;;;;5076153;28;20441;-66
2022/10/16 05:32:53;;;;;;;5.77;5.27;;;;;;;;;;5076209;28;20452;-66
2022/10/16 05:35:20;;;;;;;6.30;5.40;;;;;;;;;;5076195;28;20450;-66
2022/10/16 05:37:48;;;;;;;6.53;5.10;;;;;;;;;;5075901;28;20451;-66
2022/10/16 05:40:16;;;;;;;6.03;5.53;;;;;;;;;;5076246;28;20454;-66
2022/10/16 05:42:43;;;;;;;5.87;4.60;;;;;;;;;;5076274;28;20837;-66
2022/10/16 05:45:11;;;;;;;5.90;4.50;;;;;;;;;;5076842;28;20439;-66
2022/10/16 05:47:40;;;;;;;6.73;5.30;;;;;;;;;;5076169;28;20531;-66
2022/10/16 05:50:07;;;;;;;4.87;4.47;;;;;;;;;;5075565;28;20440;-66
2022/10/16 05:52:35;;;;;;;5.20;4.67;;;;;;;;;;5075976;28;20452;-66
2022/10/16 05:55:02;;;;;;;5.00;4.50;;;;;;;;;;5075881;28;20901;-66
2022/10/16 05:57:29;;;;;;;5.60;4.30;;;;;;;;;;5075867;28;20452;-66
2022/10/16 05:59:56;;;;;;;4.97;4.50;;;;;;;;;;5075977;28;20455;-66
2022/10/16 06:02:24;;;;;;;7.20;4.63;;;;;;;;;;5075856;28;20938;-66
2022/10/16 06:04:54;;;;;;;6.57;4.80;;;;;;;;;;5075964;28;20484;-65
2022/10/16 06:07:21;;;;;;;12.70;5.03;;;;;;;;;;5075660;28;20444;-66
2022/10/16 06:09:49;;;;;;;5.47;3.87;;;;;;;;;;5075277;28;21009;-66
2022/10/16 06:12:16;;;;;;;5.10;4.40;;;;;;;;;;5075452;28;20798;-66
2022/10/16 06:14:44;;;;;;;4.40;3.73;;;;;;;;;;5075820;28;20446;-66
2022/10/16 06:17:11;;;;;;;4.00;3.70;;;;;;;;;;5075807;28;20446;-67
2022/10/16 06:19:38;;;;;;;3.73;3.40;;;;;;;;;;5075348;28;20460;-66
2022/10/16 06:22:06;;;;;;;4.27;3.50;;;;;;;;;;5075815;28;20446;-68
2022/10/16 06:24:34;;;;;;;5.40;4.90;;;;;;;;;;5075396;28;20500;-66
2022/10/16 06:27:02;;;;;;;5.80;3.80;;;;;;;;;;5075719;28;20444;-66
2022/10/16 06:29:29;;;;;;;3.73;3.30;;;;;;;;;;5075253;28;20441;-66
2022/10/16 06:31:56;;;;;;;3.23;2.93;;;;;;;;;;5075273;28;20447;-66
2022/10/16 06:34:23;;;;;;;3.87;3.07;;;;;;;;;;5075493;28;20482;-66
2022/10/16 06:36:50;;;;;;;3.90;3.23;;;;;;;;;;5075604;28;20454;-66
2022/10/16 06:39:19;;;;;;;3.60;3.30;;;;;;;;;;5075118;28;20443;-67
2022/10/16 06:41:46;;;;;;;6.17;3.00;;;;;;;;;;5075443;28;20453;-66
2022/10/16 06:44:13;;;;;;;6.40;3.60;;;;;;;;;;5075753;28;20487;-66
2022/10/16 06:46:40;;;;;;;3.67;3.37;;;;;;;;;;5075321;28;20640;-66
2022/10/16 06:49:08;;;;;;;3.80;3.33;;;;;;;;;;5075203;28;20447;-66
2022/10/16 06:51:36;;;;;;;3.03;2.83;;;;;;;;;;5074934;28;20453;-66
2022/10/16 06:54:03;;;;;;;7.40;2.90;;;;;;;;;;5075274;28;20460;-67
2022/10/16 06:56:34;;;;;;;4.00;3.37;;;;;;;;;;5075155;28;20499;-66
2022/10/16 06:59:01;;;;;;;3.30;3.10;;;;;;;;;;5075686;28;20916;-66
2022/10/16 07:01:29;;;;;;;3.90;3.50;;;;;;;;;;5074650;28;20929;-66
2022/10/16 07:03:56;;;;;;;4.07;3.73;;;;;;;;;;5075334;28;20818;-66
2022/10/16 07:06:25;;;;;;;4.00;3.60;;;;;;;;;;5075005;28;20446;-66
2022/10/16 07:08:52;;;;;;;3.33;3.07;;;;;;;;;;5074476;28;20456;-65
2022/10/16 07:11:20;;;;;;;4.33;3.30;;;;;;;;;;5075506;28;20439;-65
2022/10/16 07:13:49;;;;;;;4.83;3.70;;;;;;;;;;5074705;28;20457;-66
2022/10/16 07:16:17;;;;;;;4.20;3.80;;;;;;;;;;5074385;28;20968;-66
2022/10/16 07:18:45;;;;;;;3.80;3.50;;;;;;;;;;5074642;28;20432;-67
2022/10/16 07:21:13;;;;;;;3.87;3.57;;;;;;;;;;5074204;28;20446;-67
2022/10/16 07:23:41;;;;;;;4.23;3.83;;;;;;;;;;5073872;28;20474;-67
2022/10/16 07:26:09;;;;;;;3.47;3.23;;;;;;;;;;5073812;28;20848;-67
2022/10/16 07:28:36;;;;;;;5.77;3.10;;;;;;;;;;5074157;28;20803;-67
2022/10/16 07:31:05;;;;;;;4.07;3.30;;;;;;;;;;5074294;28;20528;-67
2022/10/16 07:33:33;;;;;;;6.50;4.73;;;;;;;;;;5074485;28;20445;-67
2022/10/16 07:36:00;;;;;;;3.73;3.43;;;;;;;;;;5074101;28;20486;-67
2022/10/16 07:38:27;;;;;;;6.50;3.83;;;;;;;;;;5074285;28;20442;-67
2022/10/16 07:40:58;;;;;;;4.97;3.17;;;;;;;;;;5073785;28;20532;-67
2022/10/16 07:43:26;;;;;;;4.03;3.17;;;;;;;;;;5074032;28;20508;-67
2022/10/16 07:45:53;;;;;;;4.57;3.40;;;;;;;;;;5073985;28;20442;-67
2022/10/16 07:48:21;;;;;;;3.43;3.13;;;;;;;;;;5073185;28;20767;-67
2022/10/16 07:50:48;;;;;;;5.37;3.37;;;;;;;;;;5073729;28;20450;-66
2022/10/16 07:53:16;;;;;;;4.90;3.60;;;;;;;;;;5073233;28;20457;-67
2022/10/16 07:55:43;;;;;;;4.67;3.40;;;;;;;;;;5073767;28;20936;-67
2022/10/16 07:58:10;;;;;;;4.47;4.07;;;;;;;;;;5073919;28;20439;-67
2022/10/16 08:00:38;;;;;;;4.30;3.83;;;;;;;;;;5073507;28;20454;-67
2022/10/16 08:03:05;;;;;;;4.50;2.77;;;;;;;;;;5073567;28;20930;-67
2022/10/16 08:05:35;;;;;;;6.90;3.50;;;;;;;;;;5073654;28;20499;-67
2022/10/16 08:08:02;;;;;;;3.50;3.20;;;;;;;;;;5073179;28;20505;-67
2022/10/16 08:10:31;;;;;;;4.43;2.90;;;;;;;;;;5073367;28;20446;-67
2022/10/16 08:12:59;;;;;;;4.30;2.73;;;;;;;;;;5073430;28;20502;-67
2022/10/16 08:15:26;;;;;;;3.93;3.50;;;;;;;;;;5073428;28;20451;-68
2022/10/16 08:17:56;;;;;;;3.40;3.10;;;;;;;;;;5073646;28;20461;-67
2022/10/16 08:20:24;;;;;;;4.80;3.33;;;;;;;;;;5073122;28;20447;-68
2022/10/16 08:22:52;;;;;;;3.80;2.97;;;;;;;;;;5073251;28;20449;-68
2022/10/16 08:25:19;;;;;;;6.47;2.87;;;;;;;;;;5072956;28;20866;-67
2022/10/16 08:27:47;;;;;;;5.70;2.70;;;;;;;;;;5072989;28;20447;-66
2022/10/16 08:30:14;;;;;;;2.67;2.47;;;;;;;;;;5073409;28;20454;-68
2022/10/16 08:32:42;;;;;;;4.60;3.17;;;;;;;;;;5073137;28;20447;-68
2022/10/16 08:35:10;;;;;;;3.70;3.30;;;;;;;;;;5073370;28;20513;-68
2022/10/16 08:37:37;;;;;;;3.63;3.10;;;;;;;;;;5073441;28;20447;-68
2022/10/16 08:40:06;;;;;;;4.30;2.77;;;;;;;;;;5072898;28;20943;-69
2022/10/16 08:42:45;;;;;;;7.40;3.37;;;;;;;;;;5073447;28;20443;-69
2022/10/16 08:45:21;;;;;;;4.10;2.60;;;;;;;;;;5073409;28;20469;-68
2022/10/16 08:47:51;;;;;;;7.20;3.00;;;;;;;;;;5072775;28;20441;-68
2022/10/16 08:50:23;;;;;;;8.70;2.87;;;;;;;;;;5073379;28;20447;-68
2022/10/16 08:52:51;;;;;;;8.50;3.20;;;;;;;;;;5073151;28;20485;-67
2022/10/16 08:55:24;;;;;;;7.00;2.90;;;;;;;;;;5073296;28;20475;-67
2022/10/16 08:57:51;;;;;;;4.43;2.40;;;;;;;;;;5073341;28;20800;-67
2022/10/16 09:00:19;;;;;;;7.57;2.90;;;;;;;;;;5073609;28;20455;-68
2022/10/16 09:02:51;;;;;;;9.90;2.87;;;;;;;;;;5073154;28;20442;-67
2022/10/16 09:05:28;;;;;;;3.83;2.63;;;;;;;;;;5073249;28;20490;-67
2022/10/16 09:08:00;;;;;;;6.33;3.00;;;;;;;;;;5072870;28;20436;-68
2022/10/16 09:10:35;;;;;;;3.13;2.20;;;;;;;;;;5073504;28;20452;-67
2022/10/16 09:13:09;;;;;;;3.70;2.57;;;;;;;;;;5073362;28;20755;-67
2022/10/16 09:15:38;;;;;;;5.47;2.30;;;;;;;;;;5073499;28;20438;-67
2022/10/16 09:18:08;;;;;;;4.70;3.00;;;;;;;;;;5073040;28;20470;-67
2022/10/16 09:20:42;;;;;;;3.00;1.97;;;;;;;;;;5072619;28;20518;-67
2022/10/16 09:23:15;;;;;;;4.03;3.30;;;;;;;;;;5073064;28;20775;-67
2022/10/16 09:25:47;;;;;;;3.17;2.30;;;;;;;;;;5072479;28;20847;-67
2022/10/16 09:28:15;;;;;;;4.53;2.40;;;;;;;;;;5071891;28;20447;-67
2022/10/16 09:30:42;;;;;;;5.20;2.67;;;;;;;;;;5072598;28;20447;-67
2022/10/16 09:33:10;;;;;;;3.90;2.30;;;;;;;;;;5072539;28;20991;-67
2022/10/16 09:35:39;;;;;;;4.27;2.47;;;;;;;;;;5072985;28;20443;-67
2022/10/16 09:38:06;;;;;;;3.47;2.00;;;;;;;;;;5072837;28;20542;-67
2022/10/16 09:40:35;;;;;;;3.33;1.90;;;;;;;;;;5072858;28;20441;-67
2022/10/16 09:43:13;;;;;;;2.90;2.27;;;;;;;;;;5072767;28;20440;-67
2022/10/16 09:45:40;;;;;;;8.73;2.40;;;;;;;;;;5073583;28;20562;-67
2022/10/16 09:48:12;;;;;;;3.53;2.27;;;;;;;;;;5075464;28;20467;-67
2022/10/16 09:50:39;;;;;;;4.10;2.67;;;;;;;;;;5076100;28;20491;-67
2022/10/16 09:53:07;;;;;;;3.93;2.40;;;;;;;;;;5075594;28;20533;-67
2022/10/16 09:55:34;;;;;;;4.10;2.60;;;;;;;;;;5076034;28;20442;-67
2022/10/16 09:58:01;;;;;;;2.60;1.97;;;;;;;;;;5075956;28;20442;-67
2022/10/16 10:00:31;;;;;;;3.40;2.10;;;;;;;;;;5075772;28;20529;-68
2022/10/16 10:02:59;;;;;;;3.17;1.93;;;;;;;;;;5076437;28;20848;-68
2022/10/16 10:05:27;;;;;;;5.47;2.30;;;;;;;;;;5075814;28;20489;-67
2022/10/16 10:07:59;;;;;;;4.03;2.47;;;;;;;;;;5075875;28;20455;-67
2022/10/16 10:10:27;;;;;;;5.80;2.60;;;;;;;;;;5075602;28;20982;-66
2022/10/16 10:12:55;;;;;;;6.40;3.03;;;;;;;;;;5075854;28;20435;-65
2022/10/16 10:15:23;;;;;;;3.50;2.50;;;;;;;;;;5075597;28;20986;-67
2022/10/16 10:17:53;;;;;;;4.83;3.30;;;;;;;;;;5075440;28;20447;-65
2022/10/16 10:20:24;;;;;;;7.33;3.40;;;;;;;;;;5076173;28;20450;-65
2022/10/16 10:22:51;;;;;;;7.27;3.90;;;;;;;;;;5075549;28;20912;-65
2022/10/16 10:25:40;;;;;;;4.67;4.27;;;;;;;;;;5075114;28;20486;-65
2022/10/16 10:28:24;;;;;;;9.20;4.00;;;;;;;;;;5070689;28;20450;-65
2022/10/16 10:30:55;;;;;;;6.87;2.80;;;;;;;;;;5075387;28;20436;-65
2022/10/16 10:33:29;;;;;;;7.70;3.80;;;;;;;;;;5075615;28;20427;-65
2022/10/16 10:36:01;;;;;;;3.73;2.20;;;;;;;;;;5075725;28;20450;-66
2022/10/16 10:38:32;;;;;;;4.27;2.63;;;;;;;;;;5075363;28;20496;-65
2022/10/16 10:41:06;;;;;;;2.90;2.47;;;;;;;;;;5075177;28;20432;-65
2022/10/16 10:43:42;;;;;;;3.77;2.33;;;;;;;;;;5075004;28;20477;-65
2022/10/16 10:46:11;;;;;;;5.80;2.20;;;;;;;;;;5075383;28;20490;-65
2022/10/16 10:48:56;;;;;;;4.93;2.07;;;;;;;;;;5074979;28;20942;-65
2022/10/16 10:51:28;;;;;;;8.27;2.10;;;;;;;;;;5075457;28;20518;-66
2022/10/16 10:54:00;;;;;;;5.33;1.97;;;;;;;;;;5075175;28;20529;-65
2022/10/16 10:56:40;;;;;;;2.77;2.20;;;;;;;;;;5075261;28;20445;-68
2022/10/16 10:59:34;;;;;;;1.80;1.70;;;;;;;;;;5074907;28;20439;-65
2022/10/16 11:02:06;;;;;;;2.83;1.70;;;;;;;;;;5039318;28;20480;-65
2022/10/16 11:04:41;;;;;;;5.17;1.90;;;;;;;;;;5075201;28;20478;-65
2022/10/16 11:07:12;;;;;;;3.40;2.00;;;;;;;;;;5075144;28;20446;-66
2022/10/16 11:09:43;;;;;;;2.80;1.50;;;;;;;;;;5074671;28;20433;-65
2022/10/16 11:12:13;;;;;;;2.37;1.77;;;;;;;;;;5075180;28;20471;-66
2022/10/16 11:14:44;;;;;;;5.47;1.97;;;;;;;;;;5074881;28;20430;-66
2022/10/16 11:17:13;;;;;;;1.87;1.73;;;;;;;;;;5074461;28;20430;-65
2022/10/16 11:19:46;;;;;;;4.60;1.90;;;;;;;;;;5074662;28;20445;-65
2022/10/16 11:22:15;;;;;;;3.27;1.90;;;;;;;;;;5075178;28;20428;-66
2022/10/16 11:24:44;;;;;;;3.73;1.87;;;;;;;;;;5074248;28;20486;-66
2022/10/16 11:27:16;;;;;;;2.83;1.30;;;;;;;;;;5074499;28;20523;-65
2022/10/16 11:29:48;;;;;;;5.83;1.97;;;;;;;;;;5074567;28;20515;-65
2022/10/16 11:32:20;;;;;;;3.00;1.80;;;;;;;;;;5074759;28;20434;-65
2022/10/16 11:34:53;;;;;;;4.50;1.60;;;;;;;;;;5074355;28;20467;-65
2022/10/16 11:37:21;;;;;;;4.33;1.80;;;;;;;;;;5074291;28;20439;-65
2022/10/16 11:39:49;;;;;;;2.53;1.70;;;;;;;;;;5073904;28;20452;-66
2022/10/16 11:42:20;;;;;;;1.97;1.60;;;;;;;;;;5073936;28;20456;-65
2022/10/16 11:44:52;;;;;;;4.87;1.50;;;;;;;;;;5074039;28;20482;-65
2022/10/16 11:47:27;;;;;;;3.90;1.70;;;;;;;;;;5073935;28;20424;-65
2022/10/16 11:49:59;;;;;;;4.50;3.47;;;;;;;;;;5073726;28;20441;-65
2022/10/16 11:52:30;;;;;;;4.90;2.10;;;;;;;;;;5074979;28;20435;-65
2022/10/16 11:54:59;;;;;;;3.00;2.00;;;;;;;;;;5074119;28;20475;-65
2022/10/16 11:57:29;;;;;;;4.77;1.70;;;;;;;;;;5072835;28;20447;-66
2022/10/16 11:59:59;;;;;;;4.80;1.87;;;;;;;;;;5072739;28;20457;-65
2022/10/16 12:02:42;;;;;;;8.17;2.40;;;;;;;;;;5073516;28;20434;-65
2022/10/16 12:05:19;;;;;;;2.20;1.57;;;;;;;;;;5073102;28;20464;-66
2022/10/16 12:07:50;;;;;;;4.43;1.87;;;;;;;;;;5073412;28;20427;-65
2022/10/16 12:10:22;;;;;;;4.37;1.83;;;;;;;;;;5072137;28;20429;-65
2022/10/16 12:12:49;;;;;;;5.10;1.93;;;;;;;;;;5073031;28;20443;-66
2022/10/16 12:15:21;;;;;;;4.17;1.80;;;;;;;;;;5073133;28;20482;-65
2022/10/16 12:17:48;;;;;;;2.77;1.50;;;;;;;;;;5073197;28;20538;-66
2022/10/16 12:20:29;;;;;;;4.70;2.00;;;;;;;;;;5073540;28;20438;-65
2022/10/16 12:22:58;;;;;;;4.17;2.33;;;;;;;;;;5072722;28;20510;-66
2022/10/16 12:25:27;;;;;;;2.47;1.50;;;;;;;;;;5072541;28;20579;-66
2022/10/16 12:27:59;;;;;;;3.17;1.70;;;;;;;;;;5073175;28;20446;-65
2022/10/16 12:30:27;;;;;;;4.10;1.50;;;;;;;;;;5073232;28;20426;-65
2022/10/16 12:32:55;;;;;;;2.30;1.70;;;;;;;;;;5073381;28;20538;-65
2022/10/16 12:35:23;;;;;;;1.97;1.47;;;;;;;;;;5073359;28;20482;-65
2022/10/16 12:37:53;;;;;;;2.03;1.50;;;;;;;;;;5073450;28;20448;-65
2022/10/16 12:40:28;;;;;;;1.57;1.30;;;;;;;;;;5073335;28;20541;-65
2022/10/16 12:42:55;;;;;;;2.70;1.30;;;;;;;;;;5072879;28;20440;-65
2022/10/16 12:45:27;;;;;;;3.57;1.90;;;;;;;;;;5072561;28;20478;-65
2022/10/16 12:47:55;;;;;;;2.37;2.10;;;;;;;;;;5073153;28;20792;-65
2022/10/16 12:50:27;;;;;;;4.70;1.40;;;;;;;;;;5072975;28;20466;-65
2022/10/16 12:52:55;;;;;;;3.40;2.27;;;;;;;;;;5072834;28;20436;-65
2022/10/16 12:55:23;;;;;;;2.83;1.53;;;;;;;;;;5073237;28;20467;-65
2022/10/16 12:58:02;;;;;;;7.47;2.50;;;;;;;;;;5072888;28;20494;-65
2022/10/16 13:00:33;;;;;;;2.80;1.60;;;;;;;;;;5072902;28;20436;-65
2022/10/16 13:03:15;;;;;;;4.10;2.00;;;;;;;;;;5072774;28;20870;-66
2022/10/16 13:05:47;;;;;;;3.20;1.67;;;;;;;;;;5072652;28;20500;-66
2022/10/16 13:08:24;;;;;;;6.10;1.70;;;;;;;;;;5073506;28;20781;-65
2022/10/16 13:10:57;;;;;;;3.37;1.60;;;;;;;;;;5072613;28;20440;-65
2022/10/16 13:13:31;;;;;;;2.37;1.90;;;;;;;;;;5073074;28;20428;-65
2022/10/16 13:16:10;;;;;;;2.33;1.70;;;;;;;;;;5073026;28;20436;-65
2022/10/16 13:18:43;;;;;;;2.10;1.50;;;;;;;;;;5073407;28;20851;-65
2022/10/16 13:21:19;;;;;;;5.60;2.37;;;;;;;;;;5074282;28;20788;-65
2022/10/16 13:23:49;;;;;;;5.23;1.77;;;;;;;;;;5076555;28;20469;-65
2022/10/16 13:26:22;;;;;;;3.20;1.97;;;;;;;;;;5076060;28;20835;-66
2022/10/16 13:28:49;;;;;;;4.17;1.77;;;;;;;;;;5076201;28;20530;-65
2022/10/16 13:31:19;;;;;;;6.17;1.73;;;;;;;;;;5076499;28;20446;-65
2022/10/16 13:33:48;;;;;;;3.60;1.40;;;;;;;;;;5076124;28;20457;-65
2022/10/16 13:36:22;;;;;;;2.50;1.33;;;;;;;;;;5076232;28;20462;-65
2022/10/16 13:39:00;;;;;;;1.80;1.57;;;;;;;;;;5076514;28;20545;-65
2022/10/16 13:41:27;;;;;;;2.00;1.70;;;;;;;;;;5076592;28;20440;-65
2022/10/16 13:43:56;;;;;;;5.27;2.20;;;;;;;;;;5076410;28;20462;-65
2022/10/16 13:46:23;;;;;;;2.00;1.70;;;;;;;;;;5075269;28;20999;-65
2022/10/16 13:48:58;;;;;;;5.73;1.53;;;;;;;;;;5076647;28;20530;-65
2022/10/16 13:51:25;;;;;;;1.53;1.43;;;;;;;;;;5076138;28;20432;-65
2022/10/16 13:53:54;;;;;;;3.00;1.67;;;;;;;;;;5076383;28;20454;-65
2022/10/16 13:56:22;;;;;;;2.20;1.73;;;;;;;;;;5076103;28;20462;-65
2022/10/16 13:58:59;;;;;;;3.43;1.67;;;;;;;;;;5076202;28;20493;-66
2022/10/16 14:01:28;;;;;;;3.90;1.83;;;;;;;;;;5075794;28;20982;-65
2022/10/16 14:04:01;;;;;;;6.53;1.57;;;;;;;;;;5076092;28;20434;-65
2022/10/16 14:06:29;;;;;;;5.77;1.70;;;;;;;;;;5075962;28;20479;-65
2022/10/16 14:09:01;;;;;;;2.17;1.90;;;;;;;;;;5076214;28;20475;-65
2022/10/16 14:11:29;;;;;;;9.03;1.73;;;;;;;;;;5075638;28;20465;-65
2022/10/16 14:13:56;;;;;;;3.90;1.53;;;;;;;;;;5076082;28;20451;-65
2022/10/16 14:16:24;;;;;;;2.80;2.00;;;;;;;;;;5075710;28;20447;-65
2022/10/16 14:18:56;;;;;;;3.00;1.43;;;;;;;;;;5076630;28;20450;-65
2022/10/16 14:21:24;;;;;;;2.80;1.60;;;;;;;;;;5076061;28;20431;-65
2022/10/16 14:23:51;;;;;;;4.13;1.80;;;;;;;;;;5075680;28;20467;-65
2022/10/16 14:26:21;;;;;;;5.00;1.73;;;;;;;;;;5075245;28;20489;-66
2022/10/16 14:28:49;;;;;;;2.60;1.60;;;;;;;;;;5075724;28;20446;-66
2022/10/16 14:31:26;;;;;;;5.43;2.10;;;;;;;;;;5075561;28;20454;-65
2022/10/16 14:33:53;;;;;;;5.53;1.97;;;;;;;;;;5075341;28;20514;-65
2022/10/16 14:36:21;;;;;;;2.40;1.60;;;;;;;;;;5075738;28;20454;-66
2022/10/16 14:38:50;;;;;;;4.07;1.63;;;;;;;;;;5075123;28;20446;-65
2022/10/16 14:41:22;;;;;;;2.60;1.83;;;;;;;;;;5075108;28;20925;-65
2022/10/16 14:43:52;;;;;;;7.87;2.17;;;;;;;;;;5075561;28;20434;-65
2022/10/16 14:46:20;;;;;;;3.40;2.00;;;;;;;;;;5074878;28;20484;-65
2022/10/16 14:48:48;;;;;;;2.70;1.67;;;;;;;;;;5075866;28;20467;-65
2022/10/16 14:51:16;;;;;;;3.73;1.73;;;;;;;;;;5075076;28;20440;-65
2022/10/16 14:53:44;;;;;;;2.50;1.70;;;;;;;;;;5075104;28;20444;-65